PWSweather.com
Personal Weather Stations
Station Observations
HARSTAD1
Kanebogen, HarstadNO 9411

KanebogenHarstadNO 9411

Lat: 68.7731054, Lon: 16.5496315

Elevation: 213

Station Type: Netatmo Weather Station

http://oddne.net/met/

Latest ConditionsUpdated 3:32:35 PM GMT+01:01 Thursday, Nov 14, 2019
Currently Today's Max Today's Min Today's Average
Temperature 28.6°F-1.9°C 32.4°F0.2°C 28.4°F-2.0°C 30.1°F-1.1°C
Dew Point 25.5°F-3.6°C 28.0°F-2.2°C 23.7°F-4.6°C 25.9°F-3.4°C
Winds 1.2 mph NW1.9 kmh NW 3.1 mph -5.0 kmh - - 1.2 mph 1.9 kmh
Wind Gusts 2.5 mph4.0 kmh 4.4 mph7.1 kmh - -
Humidity 88% 88% 82% 84%
Pressure 30.14 in1020.7 mb 30.14 in1020.7 mb 30.00 in1015.9 mb -
Hour Temp Dew Point Humidity Winds Wind Gusts Pressure Precip Precip Rate Daily Precip Total
03:32 PM 28.6°F-1.9°C 25.5°F-3.6°C 88% 1.2 mph NW1.9 kmh NW 2.5 mph4.0 kmh 30.14 in1020.7 mb 0.00 in0.0 mm 0.00 in0.0 mm 0.00 in0.0 mm
03:22 PM 28.6°F-1.9°C 25.5°F-3.6°C 88% 3.1 mph WNW5.0 kmh WNW 4.4 mph7.1 kmh 30.14 in1020.7 mb 0.00 in0.0 mm 0.00 in0.0 mm 0.00 in0.0 mm
03:09 PM 28.8°F-1.8°C 25.3°F-3.7°C 87% 0.6 mph W1.0 kmh W 1.9 mph3.1 kmh 30.14 in1020.7 mb 0.00 in0.0 mm 0.00 in0.0 mm 0.00 in0.0 mm
03:01 PM 28.8°F-1.8°C 25.7°F-3.5°C 88% 1.2 mph NW1.9 kmh NW 3.1 mph5.0 kmh 30.14 in1020.7 mb 0.00 in0.0 mm 0.00 in0.0 mm 0.00 in0.0 mm
02:50 PM 28.6°F-1.9°C 25.2°F-3.8°C 87% 1.2 mph W1.9 kmh W 3.7 mph6.0 kmh 30.14 in1020.7 mb 0.00 in0.0 mm 0.00 in0.0 mm 0.00 in0.0 mm
02:42 PM 28.6°F-1.9°C 25.2°F-3.8°C 87% 1.2 mph W1.9 kmh W 2.5 mph4.0 kmh 30.13 in1020.3 mb 0.00 in0.0 mm 0.00 in0.0 mm 0.00 in0.0 mm
02:32 PM 28.8°F-1.8°C 25.3°F-3.7°C 87% 1.2 mph WSW1.9 kmh WSW 2.5 mph4.0 kmh 30.13 in1020.3 mb 0.00 in0.0 mm 0.00 in0.0 mm 0.00 in0.0 mm
02:21 PM 28.8°F-1.8°C 25.0°F-3.9°C 86% 1.9 mph W3.1 kmh W 3.1 mph5.0 kmh 30.13 in1020.3 mb 0.00 in0.0 mm 0.00 in0.0 mm 0.00 in0.0 mm
02:09 PM 28.9°F-1.7°C 25.2°F-3.8°C 86% 1.9 mph W3.1 kmh W 3.1 mph5.0 kmh 30.13 in1020.3 mb 0.00 in0.0 mm 0.00 in0.0 mm 0.00 in0.0 mm
02:02 PM 29.3°F-1.5°C 25.5°F-3.6°C 86% 1.2 mph W1.9 kmh W 2.5 mph4.0 kmh 30.13 in1020.3 mb 0.00 in0.0 mm 0.00 in0.0 mm 0.00 in0.0 mm
01:52 PM 29.5°F-1.4°C 25.5°F-3.6°C 85% 0.6 mph W1.0 kmh W 1.9 mph3.1 kmh 30.13 in1020.3 mb 0.00 in0.0 mm 0.00 in0.0 mm 0.00 in0.0 mm
01:42 PM 29.8°F-1.2°C 26.1°F-3.3°C 86% 0.6 mph NW1.0 kmh NW 2.5 mph4.0 kmh 30.13 in1020.3 mb 0.00 in0.0 mm 0.00 in0.0 mm 0.00 in0.0 mm
01:29 PM 29.8°F-1.2°C 26.1°F-3.3°C 86% 0.6 mph W1.0 kmh W 1.9 mph3.1 kmh 30.12 in1020.0 mb 0.00 in0.0 mm 0.00 in0.0 mm 0.00 in0.0 mm
01:18 PM 29.5°F-1.4°C 25.7°F-3.5°C 86% 1.9 mph W3.1 kmh W 3.1 mph5.0 kmh 30.12 in1020.0 mb 0.00 in0.0 mm 0.00 in0.0 mm 0.00 in0.0 mm
01:12 PM 29.5°F-1.4°C 25.5°F-3.6°C 85% 1.2 mph W1.9 kmh W 2.5 mph4.0 kmh 30.12 in1020.0 mb 0.00 in0.0 mm 0.00 in0.0 mm 0.00 in0.0 mm
01:02 PM 29.5°F-1.4°C 25.5°F-3.6°C 85% 1.2 mph W1.9 kmh W 2.5 mph4.0 kmh 30.12 in1020.0 mb 0.00 in0.0 mm 0.00 in0.0 mm 0.00 in0.0 mm
12:48 PM 29.7°F-1.3°C 25.7°F-3.5°C 85% 1.2 mph WSW1.9 kmh WSW 2.5 mph4.0 kmh 30.12 in1020.0 mb 0.00 in0.0 mm 0.00 in0.0 mm 0.00 in0.0 mm
12:42 PM 29.8°F-1.2°C 25.9°F-3.4°C 85% 1.2 mph WSW1.9 kmh WSW 3.1 mph5.0 kmh 30.11 in1019.6 mb 0.00 in0.0 mm 0.00 in0.0 mm 0.00 in0.0 mm
12:29 PM 29.8°F-1.2°C 25.5°F-3.6°C 84% 1.9 mph W3.1 kmh W 3.1 mph5.0 kmh 30.11 in1019.6 mb 0.00 in0.0 mm 0.00 in0.0 mm 0.00 in0.0 mm
12:22 PM 30.0°F-1.1°C 25.7°F-3.5°C 84% 1.2 mph W1.9 kmh W 2.5 mph4.0 kmh 30.11 in1019.6 mb 0.00 in0.0 mm 0.00 in0.0 mm 0.00 in0.0 mm
12:12 PM 30.4°F-0.9°C 26.1°F-3.3°C 84% 1.9 mph W3.1 kmh W 3.1 mph5.0 kmh 30.11 in1019.6 mb 0.00 in0.0 mm 0.00 in0.0 mm 0.00 in0.0 mm
11:59 AM 30.7°F-0.7°C 26.4°F-3.1°C 84% 1.2 mph W1.9 kmh W 2.5 mph4.0 kmh 30.11 in1019.6 mb 0.00 in0.0 mm 0.00 in0.0 mm 0.00 in0.0 mm
11:52 AM 30.9°F-0.6°C 26.2°F-3.2°C 83% 1.2 mph WSW1.9 kmh WSW 1.9 mph3.1 kmh 30.11 in1019.6 mb 0.00 in0.0 mm 0.00 in0.0 mm 0.00 in0.0 mm
11:42 AM 31.3°F-0.4°C 26.6°F-3.0°C 83% 0.6 mph W1.0 kmh W 2.5 mph4.0 kmh 30.10 in1019.3 mb 0.00 in0.0 mm 0.00 in0.0 mm 0.00 in0.0 mm
11:32 AM 31.6°F-0.2°C 27.0°F-2.8°C 83% 0.6 mph NW1.0 kmh NW 2.5 mph4.0 kmh 30.10 in1019.3 mb 0.00 in0.0 mm 0.00 in0.0 mm 0.00 in0.0 mm
11:20 AM 32.0°F0.0°C 27.3°F-2.6°C 83% 0.6 mph W1.0 kmh W 2.5 mph4.0 kmh 30.10 in1019.3 mb 0.00 in0.0 mm 0.00 in0.0 mm 0.00 in0.0 mm
11:12 AM 32.0°F0.0°C 27.3°F-2.6°C 83% 0.6 mph W1.0 kmh W 1.9 mph3.1 kmh 30.09 in1019.0 mb 0.00 in0.0 mm 0.00 in0.0 mm 0.00 in0.0 mm
11:02 AM 32.0°F0.0°C 27.3°F-2.6°C 83% 0.6 mph W1.0 kmh W 1.9 mph3.1 kmh 30.09 in1019.0 mb 0.00 in0.0 mm 0.00 in0.0 mm 0.00 in0.0 mm
10:52 AM 32.0°F0.0°C 27.3°F-2.6°C 83% 1.2 mph W1.9 kmh W 2.5 mph4.0 kmh 30.09 in1019.0 mb 0.00 in0.0 mm 0.00 in0.0 mm 0.00 in0.0 mm
10:40 AM 32.4°F0.2°C 28.0°F-2.2°C 84% 1.2 mph W1.9 kmh W 2.5 mph4.0 kmh 30.09 in1019.0 mb 0.00 in0.0 mm 0.00 in0.0 mm 0.00 in0.0 mm
10:32 AM 32.4°F0.2°C 28.0°F-2.2°C 84% 1.2 mph WSW1.9 kmh WSW 2.5 mph4.0 kmh 30.09 in1019.0 mb 0.00 in0.0 mm 0.00 in0.0 mm 0.00 in0.0 mm
10:22 AM 32.2°F0.1°C 27.9°F-2.3°C 84% 1.2 mph SW1.9 kmh SW 3.1 mph5.0 kmh 30.09 in1019.0 mb 0.00 in0.0 mm 0.00 in0.0 mm 0.00 in0.0 mm
10:09 AM 32.0°F0.0°C 27.9°F-2.3°C 85% 1.2 mph WSW1.9 kmh WSW 2.5 mph4.0 kmh 30.09 in1019.0 mb 0.00 in0.0 mm 0.00 in0.0 mm 0.00 in0.0 mm
10:02 AM 32.0°F0.0°C 27.9°F-2.3°C 85% 1.2 mph W1.9 kmh W 2.5 mph4.0 kmh 30.08 in1018.6 mb 0.00 in0.0 mm 0.00 in0.0 mm 0.00 in0.0 mm
09:52 AM 32.0°F0.0°C 27.9°F-2.3°C 85% 1.2 mph W1.9 kmh W 1.9 mph3.1 kmh 30.08 in1018.6 mb 0.00 in0.0 mm 0.00 in0.0 mm 0.00 in0.0 mm
09:42 AM 31.8°F-0.1°C 27.7°F-2.4°C 85% 0.6 mph W1.0 kmh W 1.9 mph3.1 kmh 30.08 in1018.6 mb 0.00 in0.0 mm 0.00 in0.0 mm 0.00 in0.0 mm
09:32 AM 31.5°F-0.3°C 27.5°F-2.5°C 85% 0.6 mph SW1.0 kmh SW 1.9 mph3.1 kmh 30.07 in1018.3 mb 0.00 in0.0 mm 0.00 in0.0 mm 0.00 in0.0 mm
09:19 AM 31.3°F-0.4°C 27.3°F-2.6°C 85% 1.2 mph WSW1.9 kmh WSW 2.5 mph4.0 kmh 30.07 in1018.3 mb 0.00 in0.0 mm 0.00 in0.0 mm 0.00 in0.0 mm
09:08 AM 30.9°F-0.6°C 27.0°F-2.8°C 85% 1.2 mph W1.9 kmh W 3.7 mph6.0 kmh 30.06 in1017.9 mb 0.00 in0.0 mm 0.00 in0.0 mm 0.00 in0.0 mm
08:59 AM 30.9°F-0.6°C 27.0°F-2.8°C 85% 1.2 mph W1.9 kmh W 1.9 mph3.1 kmh 30.06 in1017.9 mb 0.00 in0.0 mm 0.00 in0.0 mm 0.00 in0.0 mm
08:52 AM 30.7°F-0.7°C 26.8°F-2.9°C 85% 1.2 mph WNW1.9 kmh WNW 2.5 mph4.0 kmh 30.06 in1017.9 mb 0.00 in0.0 mm 0.00 in0.0 mm 0.00 in0.0 mm
08:40 AM 30.9°F-0.6°C 27.0°F-2.8°C 85% 0.6 mph W1.0 kmh W 1.9 mph3.1 kmh 30.06 in1017.9 mb 0.00 in0.0 mm 0.00 in0.0 mm 0.00 in0.0 mm
08:32 AM 31.1°F-0.5°C 26.8°F-2.9°C 84% 1.2 mph WNW1.9 kmh WNW 2.5 mph4.0 kmh 30.06 in1017.9 mb 0.00 in0.0 mm 0.00 in0.0 mm 0.00 in0.0 mm
08:22 AM 31.3°F-0.4°C 27.0°F-2.8°C 84% 1.2 mph W1.9 kmh W 3.1 mph5.0 kmh 30.05 in1017.6 mb 0.00 in0.0 mm 0.00 in0.0 mm 0.00 in0.0 mm
08:12 AM 31.3°F-0.4°C 27.0°F-2.8°C 84% 1.2 mph W1.9 kmh W 2.5 mph4.0 kmh 30.05 in1017.6 mb 0.00 in0.0 mm 0.00 in0.0 mm 0.00 in0.0 mm
08:02 AM 31.3°F-0.4°C 27.0°F-2.8°C 84% 1.2 mph W1.9 kmh W 1.9 mph3.1 kmh 30.05 in1017.6 mb 0.00 in0.0 mm 0.00 in0.0 mm 0.00 in0.0 mm
07:52 AM 31.3°F-0.4°C 27.0°F-2.8°C 84% 0.6 mph WSW1.0 kmh WSW 1.2 mph1.9 kmh 30.04 in1017.3 mb 0.00 in0.0 mm 0.00 in0.0 mm 0.00 in0.0 mm
07:38 AM 31.3°F-0.4°C 27.0°F-2.8°C 84% 0.6 mph W1.0 kmh W 1.9 mph3.1 kmh 30.04 in1017.3 mb 0.00 in0.0 mm 0.00 in0.0 mm 0.00 in0.0 mm
07:28 AM 31.3°F-0.4°C 27.0°F-2.8°C 84% 0.6 mph W1.0 kmh W 1.2 mph1.9 kmh 30.04 in1017.3 mb 0.00 in0.0 mm 0.00 in0.0 mm 0.00 in0.0 mm
07:18 AM 31.1°F-0.5°C 26.8°F-2.9°C 84% 1.2 mph W1.9 kmh W 1.9 mph3.1 kmh 30.04 in1017.3 mb 0.00 in0.0 mm 0.00 in0.0 mm 0.00 in0.0 mm
07:08 AM 31.1°F-0.5°C 26.8°F-2.9°C 84% 1.2 mph SW1.9 kmh SW 3.7 mph6.0 kmh 30.03 in1016.9 mb 0.00 in0.0 mm 0.00 in0.0 mm 0.00 in0.0 mm
06:58 AM 30.7°F-0.7°C 26.1°F-3.3°C 83% 0.6 mph SW1.0 kmh SW 1.9 mph3.1 kmh 30.03 in1016.9 mb 0.00 in0.0 mm 0.00 in0.0 mm 0.00 in0.0 mm
06:48 AM 30.7°F-0.7°C 26.1°F-3.3°C 83% 1.2 mph W1.9 kmh W 2.5 mph4.0 kmh 30.03 in1016.9 mb 0.00 in0.0 mm 0.00 in0.0 mm 0.00 in0.0 mm
06:38 AM 30.7°F-0.7°C 26.1°F-3.3°C 83% 1.2 mph W1.9 kmh W 2.5 mph4.0 kmh 30.03 in1016.9 mb 0.00 in0.0 mm 0.00 in0.0 mm 0.00 in0.0 mm
06:28 AM 30.7°F-0.7°C 25.9°F-3.4°C 82% 1.2 mph WSW1.9 kmh WSW 3.1 mph5.0 kmh 30.03 in1016.9 mb 0.00 in0.0 mm 0.00 in0.0 mm 0.00 in0.0 mm
06:18 AM 30.6°F-0.8°C 25.9°F-3.4°C 83% 1.2 mph WSW1.9 kmh WSW 2.5 mph4.0 kmh 30.03 in1016.9 mb 0.00 in0.0 mm 0.00 in0.0 mm 0.00 in0.0 mm
06:08 AM 30.6°F-0.8°C 25.9°F-3.4°C 83% 1.2 mph W1.9 kmh W 2.5 mph4.0 kmh 30.03 in1016.9 mb 0.00 in0.0 mm 0.00 in0.0 mm 0.00 in0.0 mm
05:58 AM 30.6°F-0.8°C 25.9°F-3.4°C 83% 1.2 mph WSW1.9 kmh WSW 3.1 mph5.0 kmh 30.03 in1016.9 mb 0.00 in0.0 mm 0.00 in0.0 mm 0.00 in0.0 mm
05:48 AM 30.6°F-0.8°C 25.9°F-3.4°C 83% 1.2 mph SW1.9 kmh SW 3.7 mph6.0 kmh 30.03 in1016.9 mb 0.00 in0.0 mm 0.00 in0.0 mm 0.00 in0.0 mm
05:38 AM 30.6°F-0.8°C 25.9°F-3.4°C 83% 1.2 mph W1.9 kmh W 2.5 mph4.0 kmh 30.03 in1016.9 mb 0.00 in0.0 mm 0.00 in0.0 mm 0.00 in0.0 mm
05:28 AM 30.4°F-0.9°C 25.7°F-3.5°C 83% 1.9 mph W3.1 kmh W 2.5 mph4.0 kmh 30.02 in1016.6 mb 0.00 in0.0 mm 0.00 in0.0 mm 0.00 in0.0 mm
05:18 AM 30.2°F-1.0°C 25.3°F-3.7°C 82% 1.2 mph W1.9 kmh W 2.5 mph4.0 kmh 30.02 in1016.6 mb 0.00 in0.0 mm 0.00 in0.0 mm 0.00 in0.0 mm
05:08 AM 30.6°F-0.8°C 25.9°F-3.4°C 83% 1.2 mph W1.9 kmh W 3.1 mph5.0 kmh 30.02 in1016.6 mb 0.00 in0.0 mm 0.00 in0.0 mm 0.00 in0.0 mm
04:58 AM 30.7°F-0.7°C 26.1°F-3.3°C 83% 0.6 mph W1.0 kmh W 1.9 mph3.1 kmh 30.02 in1016.6 mb 0.00 in0.0 mm 0.00 in0.0 mm 0.00 in0.0 mm
04:48 AM 30.7°F-0.7°C 26.1°F-3.3°C 83% 1.2 mph WSW1.9 kmh WSW 2.5 mph4.0 kmh 30.02 in1016.6 mb 0.00 in0.0 mm 0.00 in0.0 mm 0.00 in0.0 mm
04:38 AM 30.7°F-0.7°C 26.1°F-3.3°C 83% 1.2 mph WSW1.9 kmh WSW 3.1 mph5.0 kmh 30.02 in1016.6 mb 0.00 in0.0 mm 0.00 in0.0 mm 0.00 in0.0 mm
04:28 AM 30.4°F-0.9°C 26.1°F-3.3°C 84% 1.2 mph W1.9 kmh W 2.5 mph4.0 kmh 30.02 in1016.6 mb 0.00 in0.0 mm 0.00 in0.0 mm 0.00 in0.0 mm
04:18 AM 30.2°F-1.0°C 25.9°F-3.4°C 84% 1.2 mph WSW1.9 kmh WSW 3.1 mph5.0 kmh 30.02 in1016.6 mb 0.00 in0.0 mm 0.00 in0.0 mm 0.00 in0.0 mm
04:08 AM 30.0°F-1.1°C 26.1°F-3.3°C 85% 1.9 mph WSW3.1 kmh WSW 3.1 mph5.0 kmh 30.02 in1016.6 mb 0.00 in0.0 mm 0.00 in0.0 mm 0.00 in0.0 mm
03:58 AM 29.7°F-1.3°C 25.7°F-3.5°C 85% 1.9 mph WSW3.1 kmh WSW 3.1 mph5.0 kmh 30.01 in1016.3 mb 0.00 in0.0 mm 0.00 in0.0 mm 0.00 in0.0 mm
03:48 AM 29.7°F-1.3°C 25.7°F-3.5°C 85% 2.5 mph W4.0 kmh W 3.7 mph6.0 kmh 30.01 in1016.3 mb 0.00 in0.0 mm 0.00 in0.0 mm 0.00 in0.0 mm
03:38 AM 29.3°F-1.5°C 25.0°F-3.9°C 84% 1.9 mph W3.1 kmh W 3.1 mph5.0 kmh 30.01 in1016.3 mb 0.00 in0.0 mm 0.00 in0.0 mm 0.00 in0.0 mm
03:28 AM 29.3°F-1.5°C 25.0°F-3.9°C 84% 1.2 mph W1.9 kmh W 1.9 mph3.1 kmh 30.01 in1016.3 mb 0.00 in0.0 mm 0.00 in0.0 mm 0.00 in0.0 mm
03:18 AM 29.3°F-1.5°C 25.0°F-3.9°C 84% 1.2 mph WSW1.9 kmh WSW 2.5 mph4.0 kmh 30.01 in1016.3 mb 0.00 in0.0 mm 0.00 in0.0 mm 0.00 in0.0 mm
03:08 AM 28.9°F-1.7°C 25.0°F-3.9°C 85% 1.2 mph W1.9 kmh W 2.5 mph4.0 kmh 30.01 in1016.3 mb 0.00 in0.0 mm 0.00 in0.0 mm 0.00 in0.0 mm
02:58 AM 28.6°F-1.9°C 24.6°F-4.1°C 85% 1.2 mph W1.9 kmh W 3.1 mph5.0 kmh 30.01 in1016.3 mb 0.00 in0.0 mm 0.00 in0.0 mm 0.00 in0.0 mm
02:48 AM 28.4°F-2.0°C 24.1°F-4.4°C 84% 1.2 mph WNW1.9 kmh WNW 2.5 mph4.0 kmh 30.01 in1016.3 mb 0.00 in0.0 mm 0.00 in0.0 mm 0.00 in0.0 mm
02:38 AM 28.4°F-2.0°C 24.1°F-4.4°C 84% 1.2 mph NW1.9 kmh NW 2.5 mph4.0 kmh 30.01 in1016.3 mb 0.00 in0.0 mm 0.00 in0.0 mm 0.00 in0.0 mm
02:28 AM 28.4°F-2.0°C 24.1°F-4.4°C 84% 0.6 mph W1.0 kmh W 1.9 mph3.1 kmh 30.00 in1015.9 mb 0.00 in0.0 mm 0.00 in0.0 mm 0.00 in0.0 mm
02:18 AM 28.4°F-2.0°C 24.1°F-4.4°C 84% 0.6 mph W1.0 kmh W 1.9 mph3.1 kmh 30.00 in1015.9 mb 0.00 in0.0 mm 0.00 in0.0 mm 0.00 in0.0 mm
02:08 AM 28.6°F-1.9°C 24.1°F-4.4°C 83% 0.6 mph W1.0 kmh W 1.9 mph3.1 kmh 30.00 in1015.9 mb 0.00 in0.0 mm 0.00 in0.0 mm 0.00 in0.0 mm
01:58 AM 28.9°F-1.7°C 24.1°F-4.4°C 82% 1.2 mph W1.9 kmh W 3.1 mph5.0 kmh 30.00 in1015.9 mb 0.00 in0.0 mm 0.00 in0.0 mm 0.00 in0.0 mm
01:41 AM 28.9°F-1.7°C 24.1°F-4.4°C 82% 1.2 mph W1.9 kmh W 3.1 mph5.0 kmh 30.00 in1015.9 mb 0.00 in0.0 mm 0.00 in0.0 mm 0.00 in0.0 mm
01:28 AM 28.8°F-1.8°C 23.9°F-4.5°C 82% 1.2 mph WSW1.9 kmh WSW 2.5 mph4.0 kmh 30.00 in1015.9 mb 0.00 in0.0 mm 0.00 in0.0 mm 0.00 in0.0 mm
01:21 AM 28.8°F-1.8°C 24.3°F-4.3°C 83% 0.6 mph WSW1.0 kmh WSW 1.9 mph3.1 kmh 30.00 in1015.9 mb 0.00 in0.0 mm 0.00 in0.0 mm 0.00 in0.0 mm
01:11 AM 28.8°F-1.8°C 24.3°F-4.3°C 83% 1.2 mph W1.9 kmh W 2.5 mph4.0 kmh 30.00 in1015.9 mb 0.00 in0.0 mm 0.00 in0.0 mm 0.00 in0.0 mm
01:00 AM 28.6°F-1.9°C 24.1°F-4.4°C 83% 1.2 mph W1.9 kmh W 2.5 mph4.0 kmh 30.00 in1015.9 mb 0.00 in0.0 mm 0.00 in0.0 mm 0.00 in0.0 mm
12:51 AM 28.6°F-1.9°C 23.7°F-4.6°C 82% 1.9 mph W3.1 kmh W 3.1 mph5.0 kmh 30.00 in1015.9 mb 0.00 in0.0 mm 0.00 in0.0 mm 0.00 in0.0 mm
12:42 AM 28.8°F-1.8°C 23.9°F-4.5°C 82% 1.2 mph WNW1.9 kmh WNW 1.9 mph3.1 kmh 30.00 in1015.9 mb 0.00 in0.0 mm 0.00 in0.0 mm 0.00 in0.0 mm
12:30 AM 28.9°F-1.7°C 24.4°F-4.2°C 83% 0.6 mph E1.0 kmh E 2.5 mph4.0 kmh 30.00 in1015.9 mb 0.00 in0.0 mm 0.00 in0.0 mm 0.00 in0.0 mm
12:23 AM 29.1°F-1.6°C 24.6°F-4.1°C 83% 0.6 mph W1.0 kmh W 1.9 mph3.1 kmh 30.00 in1015.9 mb 0.00 in0.0 mm 0.00 in0.0 mm 0.00 in0.0 mm
12:13 AM 28.9°F-1.7°C 24.1°F-4.4°C 82% 1.2 mph WSW1.9 kmh WSW 2.5 mph4.0 kmh 30.00 in1015.9 mb 0.00 in0.0 mm 0.00 in0.0 mm 0.00 in0.0 mm